createdAt,value
2023-04-04T00:03:15.729Z,89.6
2023-04-04T00:08:15.666Z,88.7
2023-04-04T00:13:15.664Z,88.1
2023-04-04T00:18:15.842Z,88.6
2023-04-04T00:23:57.120Z,89.5
2023-04-04T00:28:57.108Z,89.2
2023-04-04T00:34:15.669Z,86.3
2023-04-04T00:39:57.105Z,86.1
2023-04-04T00:44:57.115Z,85.7
2023-04-04T00:49:57.140Z,87.1
2023-04-04T00:54:57.150Z,81.3
2023-04-04T01:00:15.657Z,86.8
2023-04-04T01:05:15.674Z,86
2023-04-04T01:10:57.132Z,83.9
2023-04-04T01:21:57.114Z,89
2023-04-04T01:26:57.143Z,86.9
2023-04-04T01:31:57.130Z,86.5
2023-04-04T01:37:15.655Z,89.1
2023-04-04T01:42:15.654Z,91.9
2023-04-04T01:47:18.506Z,87
2023-04-04T01:52:57.141Z,89.5
2023-04-04T01:58:15.672Z,88.4
2023-04-04T02:03:57.151Z,85.9
2023-04-04T02:08:57.137Z,85.3
2023-04-04T02:14:15.684Z,91.7
2023-04-04T02:19:57.129Z,93.5
2023-04-04T02:25:15.661Z,95.5
2023-04-04T02:30:57.163Z,89.7
2023-04-04T02:36:15.695Z,89.2
2023-04-04T02:41:57.120Z,90.6
2023-04-04T02:47:08.116Z,91.4
2023-04-04T02:52:15.631Z,92.5
2023-04-04T02:57:15.670Z,92.9
2023-04-04T03:02:57.230Z,93.7
2023-04-04T03:07:57.130Z,94.2
2023-04-04T03:12:57.267Z,96.1
2023-04-04T03:18:15.687Z,95
2023-04-04T03:23:57.140Z,95.4
2023-04-04T03:29:15.653Z,93.1
2023-04-04T03:34:57.147Z,92.6
2023-04-04T03:40:15.642Z,91.9
2023-04-04T03:45:15.654Z,94.7
2023-04-04T03:50:57.124Z,96
2023-04-04T03:55:57.145Z,98.5
2023-04-04T04:06:57.120Z,95.8
2023-04-04T04:11:57.131Z,95.8
2023-04-04T04:17:15.632Z,99
2023-04-04T04:22:57.146Z,99.9
2023-04-04T04:28:15.658Z,98.8
2023-04-04T04:33:57.106Z,95.6
2023-04-04T04:39:15.640Z,98.6
2023-04-04T04:44:57.126Z,94.4
2023-04-04T04:49:57.124Z,96.1
2023-04-04T04:55:15.651Z,97.2
2023-04-04T05:00:57.199Z,96.8
2023-04-04T05:06:15.664Z,94.4
2023-04-04T05:11:57.126Z,95.5
2023-04-04T05:17:15.719Z,96.6
2023-04-04T05:22:57.107Z,96.7
2023-04-04T05:28:15.624Z,98.8
2023-04-04T05:33:57.126Z,100
2023-04-04T05:39:15.623Z,100
2023-04-04T05:44:57.112Z,100
2023-04-04T05:50:57.101Z,100
2023-04-04T05:55:57.100Z,100
2023-04-04T06:00:57.121Z,93.9
2023-04-04T06:05:57.158Z,99.4
2023-04-04T06:11:15.630Z,100
2023-04-04T06:16:57.100Z,97.4
2023-04-04T06:22:15.653Z,80.8
2023-04-04T06:27:57.091Z,71.7
2023-04-04T06:32:57.115Z,71
2023-04-04T06:38:15.618Z,75.5
2023-04-04T06:43:15.657Z,69.2
2023-04-04T06:48:57.089Z,55.4
2023-04-04T06:53:57.127Z,55.6
2023-04-04T06:59:15.632Z,53.6
2023-04-04T07:04:15.627Z,57.9
2023-04-04T07:09:57.110Z,57.2
2023-04-04T07:15:15.623Z,49.4
2023-04-04T07:20:15.659Z,48.7
2023-04-04T07:25:15.641Z,46.9
2023-04-04T07:30:57.121Z,44.1
2023-04-04T07:36:15.647Z,42
2023-04-04T07:41:15.636Z,40.2
2023-04-04T07:47:08.716Z,40.5
2023-04-04T07:51:57.085Z,37.6
2023-04-04T07:57:15.846Z,38.3
2023-04-04T08:02:57.271Z,35.4
2023-04-04T08:08:08.082Z,34.7
2023-04-04T08:13:15.619Z,34.2
2023-04-04T08:18:59.515Z,32.1
2023-04-04T08:24:15.644Z,36.8
2023-04-04T08:29:57.115Z,34.5
2023-04-04T08:35:15.621Z,35.2
2023-04-04T08:40:15.629Z,35.2
2023-04-04T08:45:15.669Z,37.8
2023-04-04T08:50:57.116Z,42.5
2023-04-04T08:55:57.108Z,35.5
2023-04-04T09:01:15.667Z,35.6
2023-04-04T09:06:15.645Z,38.8
2023-04-04T09:11:57.155Z,37.9
2023-04-04T09:17:15.660Z,36.1
2023-04-04T09:22:57.120Z,34.3
2023-04-04T09:27:57.146Z,34.3
2023-04-04T09:33:15.681Z,31.6
2023-04-04T09:38:15.741Z,32.8
2023-04-04T09:43:57.143Z,31.4
2023-04-04T09:49:15.631Z,29.4
2023-04-04T09:54:26.190Z,28.6
2023-04-04T09:59:15.673Z,28.7
2023-04-04T10:05:05.657Z,28.7
2023-04-04T10:10:15.706Z,28.8
2023-04-04T10:15:57.160Z,27
2023-04-04T10:21:12.208Z,28.4
2023-04-04T10:26:15.665Z,29.2
2023-04-04T10:31:59.321Z,31.3
2023-04-04T10:36:57.146Z,31.4
2023-04-04T10:42:15.670Z,32.2
2023-04-04T10:47:57.226Z,30.3
2023-04-04T10:53:15.630Z,27
2023-04-04T10:58:15.674Z,32.8
2023-04-04T11:03:57.204Z,30.2
2023-04-04T11:08:57.148Z,29
2023-04-04T11:14:15.647Z,29.2
2023-04-04T11:19:15.675Z,28.8
2023-04-04T11:24:57.172Z,28.6
2023-04-04T11:30:15.651Z,30.1
2023-04-04T11:35:15.691Z,31.3
2023-04-04T11:40:57.149Z,31
2023-04-04T11:45:57.180Z,28.7
2023-04-04T11:50:57.153Z,32.5
2023-04-04T11:56:15.678Z,30.8
2023-04-04T12:01:57.157Z,30.9
2023-04-04T12:07:15.679Z,31.4
2023-04-04T12:12:57.169Z,31.2
2023-04-04T12:18:15.654Z,34.7
2023-04-04T12:23:15.689Z,33.1
2023-04-04T12:29:18.549Z,35.3
2023-04-04T12:34:57.156Z,33.8
2023-04-04T12:40:15.663Z,31.5
2023-04-04T12:45:57.180Z,30.8
2023-04-04T12:51:15.643Z,31.8
2023-04-04T12:56:15.691Z,34
2023-04-04T13:01:57.161Z,34.9
2023-04-04T13:07:15.646Z,33.6
2023-04-04T13:12:15.669Z,32.9
2023-04-04T13:17:15.684Z,33.4
2023-04-04T13:22:57.152Z,31.1
2023-04-04T13:27:57.174Z,30.5
2023-04-04T13:33:15.702Z,33.3
2023-04-04T13:38:15.679Z,35.4
2023-04-04T13:43:57.182Z,33.8
2023-04-04T13:49:15.686Z,32.3
2023-04-04T13:54:15.702Z,33.4
2023-04-04T13:59:57.195Z,31.4
2023-04-04T14:04:57.202Z,36
2023-04-04T14:10:15.698Z,34.4
2023-04-04T14:15:57.194Z,32.8
2023-04-04T14:20:57.195Z,33.9
2023-04-04T14:25:57.524Z,34.2
2023-04-04T14:31:15.715Z,35.6
2023-04-04T14:36:57.287Z,34.2
2023-04-04T14:41:57.208Z,34.8
2023-04-04T14:46:57.274Z,35.3
2023-04-04T14:52:15.695Z,34.9
2023-04-04T14:57:15.704Z,33.9
2023-04-04T15:02:15.708Z,31.7
2023-04-04T15:07:57.206Z,31.8
2023-04-04T15:13:15.715Z,29.9
2023-04-04T15:18:57.212Z,30.3
2023-04-04T15:24:15.705Z,35.9
2023-04-04T15:29:15.724Z,32.2
2023-04-04T15:34:57.235Z,36.4
2023-04-04T15:40:07.241Z,33.4
2023-04-04T15:45:15.714Z,34.8
2023-04-04T15:50:57.206Z,35.6
2023-04-04T15:55:57.225Z,36.1
2023-04-04T16:00:57.265Z,35.1
2023-04-04T16:06:15.676Z,32.4
2023-04-04T16:11:15.731Z,34.8
2023-04-04T16:16:57.243Z,35.8
2023-04-04T16:22:15.698Z,37.4
2023-04-04T16:27:15.705Z,36.7
2023-04-04T16:32:57.399Z,37.8
2023-04-04T16:37:57.269Z,38.9
2023-04-04T16:43:15.702Z,38.6
2023-04-04T16:48:15.746Z,38
2023-04-04T16:53:57.261Z,39.6
2023-04-04T16:59:17.239Z,42.3
2023-04-04T17:04:15.740Z,41.8
2023-04-04T17:09:15.725Z,41.8
2023-04-04T17:14:57.150Z,41.9
2023-04-04T17:19:57.169Z,41.5
2023-04-04T17:25:15.690Z,43.7
2023-04-04T17:30:57.195Z,44.1
2023-04-04T17:35:57.259Z,45.6
2023-04-04T17:41:15.698Z,46.7
2023-04-04T17:46:15.731Z,46.7
2023-04-04T17:51:15.724Z,47.3
2023-04-04T17:56:57.213Z,47.5
2023-04-04T18:02:15.688Z,47.4
2023-04-04T18:07:15.701Z,49.6
2023-04-04T18:12:15.712Z,53.4
2023-04-04T18:17:15.712Z,50.2
2023-04-04T18:22:57.214Z,54.1
2023-04-04T18:28:15.734Z,52.7
2023-04-04T18:33:15.722Z,54
2023-04-04T18:38:57.181Z,50.7
2023-04-04T18:44:15.694Z,55.4
2023-04-04T18:49:57.181Z,51.7
2023-04-04T18:55:15.725Z,52.7
2023-04-04T19:00:57.196Z,53.8
2023-04-04T19:05:57.198Z,54.5
2023-04-04T19:11:15.854Z,55.2
2023-04-04T19:16:57.262Z,52.9
2023-04-04T19:21:57.196Z,54.2
2023-04-04T19:27:15.864Z,53.4
2023-04-04T19:32:15.737Z,56.7
2023-04-04T19:37:57.197Z,56
2023-04-04T19:43:15.724Z,54.3
2023-04-04T19:48:57.167Z,50.9
2023-04-04T19:53:57.190Z,52.3
2023-04-04T19:59:15.782Z,53.9
2023-04-04T20:04:57.256Z,50.7
2023-04-04T20:10:15.713Z,54.2
2023-04-04T20:15:59.776Z,56.6
2023-04-04T20:21:15.716Z,55.4
2023-04-04T20:26:57.257Z,52.2
2023-04-04T20:32:15.752Z,55.3
2023-04-04T20:37:57.196Z,54.7
2023-04-04T20:43:15.696Z,57.9
2023-04-04T20:48:15.720Z,52.3
2023-04-04T20:53:15.720Z,55.7
2023-04-04T20:58:15.722Z,55.3
2023-04-04T21:09:15.690Z,54.1
2023-04-04T21:14:15.706Z,57
2023-04-04T21:19:15.715Z,55.3
2023-04-04T21:24:57.469Z,60.6
2023-04-04T21:30:15.690Z,62.5
2023-04-04T21:35:15.724Z,57.1
2023-04-04T21:40:57.190Z,58.7
2023-04-04T21:46:15.790Z,59.9
2023-04-04T21:51:15.782Z,54.6
2023-04-04T21:56:15.718Z,55.7
2023-04-04T22:01:32.110Z,56.6
2023-04-04T22:06:57.203Z,57.2
2023-04-04T22:12:15.700Z,60.7
2023-04-04T22:17:15.734Z,63.3
2023-04-04T22:22:15.946Z,61.4
2023-04-04T22:27:57.168Z,59.8
2023-04-04T22:32:57.209Z,58.7
2023-04-04T22:37:57.192Z,59.1
2023-04-04T22:42:57.196Z,59.2
2023-04-04T22:47:57.307Z,63.7
2023-04-04T22:53:15.883Z,65.6
2023-04-04T22:58:57.206Z,65.4
2023-04-04T23:03:57.258Z,65.8
2023-04-04T23:09:15.737Z,68.5
2023-04-04T23:14:57.196Z,70.4
2023-04-04T23:19:57.189Z,69.2
2023-04-04T23:25:15.727Z,68.3
2023-04-04T23:30:57.232Z,70.5
2023-04-04T23:35:57.243Z,68.7
2023-04-04T23:40:57.183Z,65.3
2023-04-04T23:45:57.309Z,68.5
2023-04-04T23:51:15.748Z,67.4
2023-04-04T23:56:57.189Z,68.9
